Tustin, California
Current Conditions -  °F | °C
As of 10:53 PM on Thursday 27 Nov 2014 (Local Time) from KSNA Reporting Station
Clear Clear  
Wind Chill: 61°   Ceiling: Unl
Heat Index: 61°   Visibility: 10mi
Dew Point: 39°   Wind: 0mph
Humidity: 44%   Direction: NA
Pressure: 30"   Gusts: NA
Location:  33.74°N, 117.81°W
Report Text: KSNA 280653Z 00000KT 10SM CLR 16/04 A3000 RMK AO2 SLP158 T01610039
Loading
Personal Weather Stations






























Interactive Weather Map New forecast layout! Learn more

10-Day Weather Forecast

Advertisements
Track Severe Weather on mobile